sensor_id;sensor_type;location;lat;lon;timestamp;P1;durP1;ratioP1;P2;durP2;ratioP2
81336;SDS011;70799;48.000;10.584;2023-12-20T00:00:42;2.28;;;1.13;;
81336;SDS011;70799;48.000;10.584;2023-12-20T00:05:54;1.85;;;0.73;;
81336;SDS011;70799;48.000;10.584;2023-12-20T00:08:33;2.15;;;0.88;;
81336;SDS011;70799;48.000;10.584;2023-12-20T00:11:09;2.47;;;0.93;;
81336;SDS011;70799;48.000;10.584;2023-12-20T00:13:44;1.75;;;0.80;;
81336;SDS011;70799;48.000;10.584;2023-12-20T00:16:22;1.98;;;0.60;;
81336;SDS011;70799;48.000;10.584;2023-12-20T00:21:35;1.67;;;0.70;;
81336;SDS011;70799;48.000;10.584;2023-12-20T00:24:11;1.50;;;0.80;;
81336;SDS011;70799;48.000;10.584;2023-12-20T00:26:48;1.98;;;0.88;;
81336;SDS011;70799;48.000;10.584;2023-12-20T00:29:25;1.55;;;0.63;;
81336;SDS011;70799;48.000;10.584;2023-12-20T00:32:01;1.98;;;0.85;;
81336;SDS011;70799;48.000;10.584;2023-12-20T00:34:37;1.98;;;0.75;;
81336;SDS011;70799;48.000;10.584;2023-12-20T00:37:13;1.52;;;0.60;;
81336;SDS011;70799;48.000;10.584;2023-12-20T00:42:25;1.25;;;0.50;;
81336;SDS011;70799;48.000;10.584;2023-12-20T00:45:02;0.75;;;0.40;;
81336;SDS011;70799;48.000;10.584;2023-12-20T00:47:38;1.48;;;0.65;;
81336;SDS011;70799;48.000;10.584;2023-12-20T00:50:15;1.35;;;0.47;;
81336;SDS011;70799;48.000;10.584;2023-12-20T00:52:54;1.05;;;0.40;;
81336;SDS011;70799;48.000;10.584;2023-12-20T00:55:33;0.93;;;0.30;;
81336;SDS011;70799;48.000;10.584;2023-12-20T01:00:47;0.70;;;0.40;;
81336;SDS011;70799;48.000;10.584;2023-12-20T01:03:23;1.73;;;0.57;;
81336;SDS011;70799;48.000;10.584;2023-12-20T01:05:59;0.85;;;0.40;;
81336;SDS011;70799;48.000;10.584;2023-12-20T01:08:39;1.25;;;0.55;;
81336;SDS011;70799;48.000;10.584;2023-12-20T01:13:51;0.95;;;0.40;;
81336;SDS011;70799;48.000;10.584;2023-12-20T01:16:27;0.95;;;0.40;;
81336;SDS011;70799;48.000;10.584;2023-12-20T01:19:03;1.10;;;0.40;;
81336;SDS011;70799;48.000;10.584;2023-12-20T01:21:39;2.20;;;0.57;;
81336;SDS011;70799;48.000;10.584;2023-12-20T01:24:16;1.20;;;0.50;;
81336;SDS011;70799;48.000;10.584;2023-12-20T01:29:28;0.80;;;0.35;;
81336;SDS011;70799;48.000;10.584;2023-12-20T01:34:40;2.20;;;0.70;;
81336;SDS011;70799;48.000;10.584;2023-12-20T01:37:16;1.77;;;0.70;;
81336;SDS011;70799;48.000;10.584;2023-12-20T01:39:52;0.98;;;0.43;;
81336;SDS011;70799;48.000;10.584;2023-12-20T01:45:04;1.75;;;0.60;;
81336;SDS011;70799;48.000;10.584;2023-12-20T01:47:41;1.33;;;0.55;;
81336;SDS011;70799;48.000;10.584;2023-12-20T01:50:17;1.52;;;0.50;;
81336;SDS011;70799;48.000;10.584;2023-12-20T01:55:33;1.55;;;0.50;;
81336;SDS011;70799;48.000;10.584;2023-12-20T01:58:11;2.20;;;0.63;;
81336;SDS011;70799;48.000;10.584;2023-12-20T02:00:48;1.27;;;0.68;;
81336;SDS011;70799;48.000;10.584;2023-12-20T02:03:24;1.08;;;0.32;;
81336;SDS011;70799;48.000;10.584;2023-12-20T02:06:02;1.60;;;0.60;;
81336;SDS011;70799;48.000;10.584;2023-12-20T02:08:39;2.00;;;0.80;;
81336;SDS011;70799;48.000;10.584;2023-12-20T02:11:16;2.22;;;0.77;;
81336;SDS011;70799;48.000;10.584;2023-12-20T02:13:53;2.03;;;0.70;;
81336;SDS011;70799;48.000;10.584;2023-12-20T02:19:05;1.33;;;0.55;;
81336;SDS011;70799;48.000;10.584;2023-12-20T02:21:44;0.93;;;0.52;;
81336;SDS011;70799;48.000;10.584;2023-12-20T02:26:57;1.50;;;0.70;;
81336;SDS011;70799;48.000;10.584;2023-12-20T02:29:34;1.85;;;0.50;;
81336;SDS011;70799;48.000;10.584;2023-12-20T02:32:10;1.33;;;0.60;;
81336;SDS011;70799;48.000;10.584;2023-12-20T02:37:23;1.10;;;0.65;;
81336;SDS011;70799;48.000;10.584;2023-12-20T02:39:59;1.65;;;0.60;;
81336;SDS011;70799;48.000;10.584;2023-12-20T02:42:37;0.70;;;0.40;;
81336;SDS011;70799;48.000;10.584;2023-12-20T02:45:14;2.15;;;0.60;;
81336;SDS011;70799;48.000;10.584;2023-12-20T02:50:26;1.02;;;0.40;;
81336;SDS011;70799;48.000;10.584;2023-12-20T02:53:02;1.77;;;0.55;;
81336;SDS011;70799;48.000;10.584;2023-12-20T02:55:39;1.25;;;0.38;;
81336;SDS011;70799;48.000;10.584;2023-12-20T02:58:16;2.67;;;0.70;;
81336;SDS011;70799;48.000;10.584;2023-12-20T03:01:01;1.48;;;0.45;;
81336;SDS011;70799;48.000;10.584;2023-12-20T03:03:37;1.50;;;0.75;;
81336;SDS011;70799;48.000;10.584;2023-12-20T03:06:11;1.45;;;0.60;;
81336;SDS011;70799;48.000;10.584;2023-12-20T03:08:51;2.20;;;1.23;;
81336;SDS011;70799;48.000;10.584;2023-12-20T03:11:27;1.85;;;0.60;;
81336;SDS011;70799;48.000;10.584;2023-12-20T03:14:03;2.83;;;1.15;;
81336;SDS011;70799;48.000;10.584;2023-12-20T03:16:39;1.73;;;0.88;;
81336;SDS011;70799;48.000;10.584;2023-12-20T03:19:16;1.90;;;0.90;;
81336;SDS011;70799;48.000;10.584;2023-12-20T03:21:53;1.83;;;0.95;;
81336;SDS011;70799;48.000;10.584;2023-12-20T03:24:29;3.05;;;1.60;;
81336;SDS011;70799;48.000;10.584;2023-12-20T03:27:06;2.63;;;1.50;;
81336;SDS011;70799;48.000;10.584;2023-12-20T03:29:42;3.97;;;1.63;;
81336;SDS011;70799;48.000;10.584;2023-12-20T03:32:21;3.33;;;1.60;;
81336;SDS011;70799;48.000;10.584;2023-12-20T03:34:57;4.32;;;2.10;;
81336;SDS011;70799;48.000;10.584;2023-12-20T03:40:11;3.80;;;1.70;;
81336;SDS011;70799;48.000;10.584;2023-12-20T03:42:48;2.92;;;1.33;;
81336;SDS011;70799;48.000;10.584;2023-12-20T03:47:59;5.15;;;2.05;;
81336;SDS011;70799;48.000;10.584;2023-12-20T03:50:36;4.53;;;2.15;;
81336;SDS011;70799;48.000;10.584;2023-12-20T03:53:12;4.10;;;1.98;;
81336;SDS011;70799;48.000;10.584;2023-12-20T03:55:57;4.15;;;1.73;;
81336;SDS011;70799;48.000;10.584;2023-12-20T03:58:33;4.80;;;2.15;;
81336;SDS011;70799;48.000;10.584;2023-12-20T04:01:10;4.82;;;2.47;;
81336;SDS011;70799;48.000;10.584;2023-12-20T04:03:47;4.95;;;2.20;;
81336;SDS011;70799;48.000;10.584;2023-12-20T04:09:02;3.97;;;2.05;;
81336;SDS011;70799;48.000;10.584;2023-12-20T04:11:39;3.35;;;1.70;;
81336;SDS011;70799;48.000;10.584;2023-12-20T04:14:18;6.03;;;2.25;;
81336;SDS011;70799;48.000;10.584;2023-12-20T04:16:57;1.58;;;0.80;;
81336;SDS011;70799;48.000;10.584;2023-12-20T04:19:34;3.67;;;1.70;;
81336;SDS011;70799;48.000;10.584;2023-12-20T04:22:11;2.72;;;1.40;;
81336;SDS011;70799;48.000;10.584;2023-12-20T04:24:52;1.88;;;0.90;;
81336;SDS011;70799;48.000;10.584;2023-12-20T04:27:30;4.68;;;2.00;;
81336;SDS011;70799;48.000;10.584;2023-12-20T04:30:06;5.93;;;2.67;;
81336;SDS011;70799;48.000;10.584;2023-12-20T04:32:42;5.55;;;2.70;;
81336;SDS011;70799;48.000;10.584;2023-12-20T04:35:18;3.45;;;1.27;;
81336;SDS011;70799;48.000;10.584;2023-12-20T04:37:54;4.70;;;2.47;;
81336;SDS011;70799;48.000;10.584;2023-12-20T04:40:33;4.40;;;2.40;;
81336;SDS011;70799;48.000;10.584;2023-12-20T04:43:11;3.35;;;1.70;;
81336;SDS011;70799;48.000;10.584;2023-12-20T04:45:47;6.28;;;3.33;;
81336;SDS011;70799;48.000;10.584;2023-12-20T04:48:23;5.60;;;2.65;;
81336;SDS011;70799;48.000;10.584;2023-12-20T04:53:38;5.00;;;2.20;;
81336;SDS011;70799;48.000;10.584;2023-12-20T04:56:14;5.38;;;2.70;;
81336;SDS011;70799;48.000;10.584;2023-12-20T05:01:31;5.85;;;2.72;;
81336;SDS011;70799;48.000;10.584;2023-12-20T05:04:07;6.65;;;3.42;;
81336;SDS011;70799;48.000;10.584;2023-12-20T05:06:43;5.72;;;3.25;;
81336;SDS011;70799;48.000;10.584;2023-12-20T05:09:19;5.90;;;3.03;;
81336;SDS011;70799;48.000;10.584;2023-12-20T05:11:56;7.38;;;3.17;;
81336;SDS011;70799;48.000;10.584;2023-12-20T05:14:34;6.57;;;3.10;;
81336;SDS011;70799;48.000;10.584;2023-12-20T05:17:11;6.20;;;3.15;;
81336;SDS011;70799;48.000;10.584;2023-12-20T05:19:47;5.10;;;2.63;;
81336;SDS011;70799;48.000;10.584;2023-12-20T05:22:27;3.95;;;1.90;;
81336;SDS011;70799;48.000;10.584;2023-12-20T05:25:06;5.88;;;2.42;;
81336;SDS011;70799;48.000;10.584;2023-12-20T05:27:45;4.88;;;2.40;;
81336;SDS011;70799;48.000;10.584;2023-12-20T05:30:23;3.97;;;2.13;;
81336;SDS011;70799;48.000;10.584;2023-12-20T05:32:59;4.78;;;2.33;;
81336;SDS011;70799;48.000;10.584;2023-12-20T05:35:36;4.45;;;2.08;;
81336;SDS011;70799;48.000;10.584;2023-12-20T05:38:12;3.78;;;1.63;;
81336;SDS011;70799;48.000;10.584;2023-12-20T05:40:48;7.05;;;2.15;;
81336;SDS011;70799;48.000;10.584;2023-12-20T05:46:01;4.22;;;1.83;;
81336;SDS011;70799;48.000;10.584;2023-12-20T05:48:37;4.90;;;1.70;;
81336;SDS011;70799;48.000;10.584;2023-12-20T05:56:25;4.22;;;1.40;;
81336;SDS011;70799;48.000;10.584;2023-12-20T05:59:02;3.38;;;1.58;;
81336;SDS011;70799;48.000;10.584;2023-12-20T06:01:39;2.90;;;1.08;;
81336;SDS011;70799;48.000;10.584;2023-12-20T06:04:16;4.57;;;1.70;;
81336;SDS011;70799;48.000;10.584;2023-12-20T06:06:55;3.42;;;1.60;;
81336;SDS011;70799;48.000;10.584;2023-12-20T06:09:33;2.55;;;1.00;;
81336;SDS011;70799;48.000;10.584;2023-12-20T06:12:09;2.38;;;1.02;;
81336;SDS011;70799;48.000;10.584;2023-12-20T06:14:46;3.03;;;1.20;;
81336;SDS011;70799;48.000;10.584;2023-12-20T06:17:22;3.17;;;1.20;;
81336;SDS011;70799;48.000;10.584;2023-12-20T06:19:59;2.08;;;1.05;;
81336;SDS011;70799;48.000;10.584;2023-12-20T06:22:40;2.38;;;0.82;;
81336;SDS011;70799;48.000;10.584;2023-12-20T06:25:16;2.90;;;1.00;;
81336;SDS011;70799;48.000;10.584;2023-12-20T06:27:52;2.80;;;0.98;;
81336;SDS011;70799;48.000;10.584;2023-12-20T06:33:07;2.65;;;0.73;;
81336;SDS011;70799;48.000;10.584;2023-12-20T06:35:44;2.10;;;0.77;;
81336;SDS011;70799;48.000;10.584;2023-12-20T06:38:20;1.58;;;0.50;;
81336;SDS011;70799;48.000;10.584;2023-12-20T06:40:56;4.97;;;1.20;;
81336;SDS011;70799;48.000;10.584;2023-12-20T06:43:33;2.00;;;0.80;;
81336;SDS011;70799;48.000;10.584;2023-12-20T06:46:20;1.90;;;0.80;;
81336;SDS011;70799;48.000;10.584;2023-12-20T06:48:57;1.55;;;0.75;;
81336;SDS011;70799;48.000;10.584;2023-12-20T06:51:33;2.17;;;0.98;;
81336;SDS011;70799;48.000;10.584;2023-12-20T06:54:09;4.55;;;1.10;;
81336;SDS011;70799;48.000;10.584;2023-12-20T06:59:22;2.08;;;0.70;;
81336;SDS011;70799;48.000;10.584;2023-12-20T07:01:58;2.95;;;1.00;;
81336;SDS011;70799;48.000;10.584;2023-12-20T07:07:14;2.15;;;0.90;;
81336;SDS011;70799;48.000;10.584;2023-12-20T07:09:51;1.27;;;0.40;;
81336;SDS011;70799;48.000;10.584;2023-12-20T07:12:27;2.78;;;0.93;;
81336;SDS011;70799;48.000;10.584;2023-12-20T07:15:04;1.73;;;0.77;;
81336;SDS011;70799;48.000;10.584;2023-12-20T07:20:17;1.77;;;0.93;;
81336;SDS011;70799;48.000;10.584;2023-12-20T07:22:54;1.75;;;0.85;;
81336;SDS011;70799;48.000;10.584;2023-12-20T07:25:30;2.13;;;1.10;;
81336;SDS011;70799;48.000;10.584;2023-12-20T07:28:07;1.88;;;0.73;;
81336;SDS011;70799;48.000;10.584;2023-12-20T07:30:43;1.58;;;0.65;;
81336;SDS011;70799;48.000;10.584;2023-12-20T07:35:56;2.35;;;0.75;;
81336;SDS011;70799;48.000;10.584;2023-12-20T07:38:36;1.60;;;0.73;;
81336;SDS011;70799;48.000;10.584;2023-12-20T07:41:14;2.72;;;1.10;;
81336;SDS011;70799;48.000;10.584;2023-12-20T07:43:53;2.33;;;1.00;;
81336;SDS011;70799;48.000;10.584;2023-12-20T07:49:05;1.23;;;0.52;;
81336;SDS011;70799;48.000;10.584;2023-12-20T07:51:42;2.72;;;1.33;;
81336;SDS011;70799;48.000;10.584;2023-12-20T07:54:18;2.15;;;0.65;;
81336;SDS011;70799;48.000;10.584;2023-12-20T07:56:55;2.95;;;1.10;;
81336;SDS011;70799;48.000;10.584;2023-12-20T07:59:32;1.38;;;0.63;;
81336;SDS011;70799;48.000;10.584;2023-12-20T08:02:08;2.03;;;0.80;;
81336;SDS011;70799;48.000;10.584;2023-12-20T08:04:44;1.58;;;0.80;;
81336;SDS011;70799;48.000;10.584;2023-12-20T08:07:21;2.45;;;0.88;;
81336;SDS011;70799;48.000;10.584;2023-12-20T08:09:57;2.15;;;0.90;;
81336;SDS011;70799;48.000;10.584;2023-12-20T08:15:11;2.17;;;0.73;;
81336;SDS011;70799;48.000;10.584;2023-12-20T08:17:47;1.45;;;0.57;;
81336;SDS011;70799;48.000;10.584;2023-12-20T08:20:25;2.30;;;0.80;;
81336;SDS011;70799;48.000;10.584;2023-12-20T08:23:12;3.17;;;0.70;;
81336;SDS011;70799;48.000;10.584;2023-12-20T08:25:48;1.85;;;0.70;;
81336;SDS011;70799;48.000;10.584;2023-12-20T08:28:27;1.73;;;0.63;;
81336;SDS011;70799;48.000;10.584;2023-12-20T08:31:03;1.52;;;0.70;;
81336;SDS011;70799;48.000;10.584;2023-12-20T08:36:16;2.17;;;0.77;;
81336;SDS011;70799;48.000;10.584;2023-12-20T08:38:53;1.77;;;0.85;;
81336;SDS011;70799;48.000;10.584;2023-12-20T08:41:29;2.17;;;0.80;;
81336;SDS011;70799;48.000;10.584;2023-12-20T08:44:06;1.83;;;0.65;;
81336;SDS011;70799;48.000;10.584;2023-12-20T08:46:43;1.70;;;0.68;;
81336;SDS011;70799;48.000;10.584;2023-12-20T08:49:19;2.25;;;0.93;;
81336;SDS011;70799;48.000;10.584;2023-12-20T08:51:55;2.47;;;1.10;;
81336;SDS011;70799;48.000;10.584;2023-12-20T08:54:33;1.95;;;0.93;;
81336;SDS011;70799;48.000;10.584;2023-12-20T08:57:09;2.60;;;0.95;;
81336;SDS011;70799;48.000;10.584;2023-12-20T08:59:46;3.45;;;1.10;;
81336;SDS011;70799;48.000;10.584;2023-12-20T09:02:22;2.28;;;0.90;;
81336;SDS011;70799;48.000;10.584;2023-12-20T09:04:58;2.92;;;1.25;;
81336;SDS011;70799;48.000;10.584;2023-12-20T09:07:35;2.92;;;1.20;;
81336;SDS011;70799;48.000;10.584;2023-12-20T09:10:11;2.20;;;0.93;;
81336;SDS011;70799;48.000;10.584;2023-12-20T09:12:50;2.03;;;1.08;;
81336;SDS011;70799;48.000;10.584;2023-12-20T09:15:29;1.50;;;0.70;;
81336;SDS011;70799;48.000;10.584;2023-12-20T09:18:08;2.47;;;1.02;;
81336;SDS011;70799;48.000;10.584;2023-12-20T09:20:44;2.42;;;1.00;;
81336;SDS011;70799;48.000;10.584;2023-12-20T09:23:21;2.03;;;0.70;;
81336;SDS011;70799;48.000;10.584;2023-12-20T09:28:33;1.40;;;0.50;;
81336;SDS011;70799;48.000;10.584;2023-12-20T09:31:11;1.85;;;0.80;;
81336;SDS011;70799;48.000;10.584;2023-12-20T09:33:47;1.50;;;0.80;;
81336;SDS011;70799;48.000;10.584;2023-12-20T09:36:23;1.42;;;0.60;;
81336;SDS011;70799;48.000;10.584;2023-12-20T09:39:00;2.70;;;1.08;;
81336;SDS011;70799;48.000;10.584;2023-12-20T09:41:37;2.17;;;0.80;;
81336;SDS011;70799;48.000;10.584;2023-12-20T09:44:18;3.15;;;1.23;;
81336;SDS011;70799;48.000;10.584;2023-12-20T09:46:56;2.60;;;1.10;;
81336;SDS011;70799;48.000;10.584;2023-12-20T09:49:34;3.13;;;1.33;;
81336;SDS011;70799;48.000;10.584;2023-12-20T09:52:11;1.80;;;0.88;;
81336;SDS011;70799;48.000;10.584;2023-12-20T09:54:48;2.80;;;0.90;;
81336;SDS011;70799;48.000;10.584;2023-12-20T09:57:27;2.00;;;0.90;;
81336;SDS011;70799;48.000;10.584;2023-12-20T10:08:09;1.70;;;0.82;;
81336;SDS011;70799;48.000;10.584;2023-12-20T10:10:46;1.67;;;0.70;;
81336;SDS011;70799;48.000;10.584;2023-12-20T10:13:22;2.08;;;0.80;;
81336;SDS011;70799;48.000;10.584;2023-12-20T10:18:34;2.03;;;0.88;;
81336;SDS011;70799;48.000;10.584;2023-12-20T10:21:11;1.95;;;0.80;;
81336;SDS011;70799;48.000;10.584;2023-12-20T10:23:51;1.73;;;1.08;;
81336;SDS011;70799;48.000;10.584;2023-12-20T10:26:27;2.25;;;0.95;;
81336;SDS011;70799;48.000;10.584;2023-12-20T10:29:04;1.90;;;1.00;;
81336;SDS011;70799;48.000;10.584;2023-12-20T10:31:41;2.20;;;0.75;;
81336;SDS011;70799;48.000;10.584;2023-12-20T10:34:18;2.15;;;1.08;;
81336;SDS011;70799;48.000;10.584;2023-12-20T10:36:59;2.55;;;1.27;;
81336;SDS011;70799;48.000;10.584;2023-12-20T10:39:37;2.60;;;1.20;;
81336;SDS011;70799;48.000;10.584;2023-12-20T10:42:14;2.30;;;1.17;;
81336;SDS011;70799;48.000;10.584;2023-12-20T10:44:52;2.15;;;1.00;;
81336;SDS011;70799;48.000;10.584;2023-12-20T10:47:29;2.13;;;1.20;;
81336;SDS011;70799;48.000;10.584;2023-12-20T10:50:09;2.40;;;1.10;;
81336;SDS011;70799;48.000;10.584;2023-12-20T10:52:46;2.33;;;1.20;;
81336;SDS011;70799;48.000;10.584;2023-12-20T10:55:28;3.15;;;1.38;;
81336;SDS011;70799;48.000;10.584;2023-12-20T10:58:08;2.40;;;1.10;;
81336;SDS011;70799;48.000;10.584;2023-12-20T11:00:44;2.83;;;1.38;;
81336;SDS011;70799;48.000;10.584;2023-12-20T11:03:21;2.30;;;1.13;;
81336;SDS011;70799;48.000;10.584;2023-12-20T11:06:00;2.20;;;1.00;;
81336;SDS011;70799;48.000;10.584;2023-12-20T11:08:52;2.83;;;1.55;;
81336;SDS011;70799;48.000;10.584;2023-12-20T11:14:35;3.00;;;1.48;;
81336;SDS011;70799;48.000;10.584;2023-12-20T11:17:15;2.33;;;1.20;;
81336;SDS011;70799;48.000;10.584;2023-12-20T11:22:34;3.00;;;1.50;;
81336;SDS011;70799;48.000;10.584;2023-12-20T11:25:14;3.65;;;2.53;;
81336;SDS011;70799;48.000;10.584;2023-12-20T11:28:07;4.68;;;1.98;;
81336;SDS011;70799;48.000;10.584;2023-12-20T11:30:50;3.17;;;1.35;;
81336;SDS011;70799;48.000;10.584;2023-12-20T11:33:35;3.10;;;1.35;;
81336;SDS011;70799;48.000;10.584;2023-12-20T11:36:15;3.22;;;1.48;;
81336;SDS011;70799;48.000;10.584;2023-12-20T11:38:55;3.72;;;1.25;;
81336;SDS011;70799;48.000;10.584;2023-12-20T11:41:34;3.88;;;1.27;;
81336;SDS011;70799;48.000;10.584;2023-12-20T11:44:12;2.67;;;1.40;;
81336;SDS011;70799;48.000;10.584;2023-12-20T11:46:48;2.83;;;1.30;;
81336;SDS011;70799;48.000;10.584;2023-12-20T11:52:02;2.90;;;1.50;;
81336;SDS011;70799;48.000;10.584;2023-12-20T11:54:39;2.25;;;1.25;;
81336;SDS011;70799;48.000;10.584;2023-12-20T11:57:16;2.05;;;1.08;;
81336;SDS011;70799;48.000;10.584;2023-12-20T11:59:52;2.90;;;1.20;;
81336;SDS011;70799;48.000;10.584;2023-12-20T12:02:28;2.67;;;1.33;;
81336;SDS011;70799;48.000;10.584;2023-12-20T12:05:05;2.25;;;1.23;;
81336;SDS011;70799;48.000;10.584;2023-12-20T12:07:41;2.30;;;1.08;;
81336;SDS011;70799;48.000;10.584;2023-12-20T12:10:18;2.60;;;1.10;;
81336;SDS011;70799;48.000;10.584;2023-12-20T12:12:54;2.03;;;1.10;;
81336;SDS011;70799;48.000;10.584;2023-12-20T12:15:33;3.25;;;1.10;;
81336;SDS011;70799;48.000;10.584;2023-12-20T12:18:09;2.00;;;1.13;;
81336;SDS011;70799;48.000;10.584;2023-12-20T12:20:46;1.95;;;0.90;;
81336;SDS011;70799;48.000;10.584;2023-12-20T12:23:23;1.52;;;1.00;;
81336;SDS011;70799;48.000;10.584;2023-12-20T12:25:59;2.20;;;1.02;;
81336;SDS011;70799;48.000;10.584;2023-12-20T12:28:35;2.63;;;1.25;;
81336;SDS011;70799;48.000;10.584;2023-12-20T12:31:15;2.47;;;1.17;;
81336;SDS011;70799;48.000;10.584;2023-12-20T12:33:51;3.75;;;1.38;;
81336;SDS011;70799;48.000;10.584;2023-12-20T12:36:28;3.00;;;1.33;;
81336;SDS011;70799;48.000;10.584;2023-12-20T12:39:05;1.98;;;0.90;;
81336;SDS011;70799;48.000;10.584;2023-12-20T12:41:42;2.75;;;1.17;;
81336;SDS011;70799;48.000;10.584;2023-12-20T12:44:18;2.45;;;0.98;;
81336;SDS011;70799;48.000;10.584;2023-12-20T12:46:55;2.85;;;1.23;;
81336;SDS011;70799;48.000;10.584;2023-12-20T12:49:33;3.03;;;1.63;;
81336;SDS011;70799;48.000;10.584;2023-12-20T12:52:09;3.25;;;1.50;;
81336;SDS011;70799;48.000;10.584;2023-12-20T12:54:45;4.18;;;1.58;;
81336;SDS011;70799;48.000;10.584;2023-12-20T12:57:21;2.60;;;1.17;;
81336;SDS011;70799;48.000;10.584;2023-12-20T12:59:57;2.72;;;1.40;;
81336;SDS011;70799;48.000;10.584;2023-12-20T13:02:35;2.80;;;1.92;;
81336;SDS011;70799;48.000;10.584;2023-12-20T13:05:14;3.38;;;1.42;;
81336;SDS011;70799;48.000;10.584;2023-12-20T13:07:50;2.55;;;1.48;;
81336;SDS011;70799;48.000;10.584;2023-12-20T13:10:27;3.72;;;1.30;;
81336;SDS011;70799;48.000;10.584;2023-12-20T13:13:04;2.05;;;0.80;;
81336;SDS011;70799;48.000;10.584;2023-12-20T13:18:22;1.27;;;0.60;;
81336;SDS011;70799;48.000;10.584;2023-12-20T13:23:35;1.73;;;0.60;;
81336;SDS011;70799;48.000;10.584;2023-12-20T13:26:12;1.17;;;0.50;;
81336;SDS011;70799;48.000;10.584;2023-12-20T13:28:48;1.70;;;0.50;;
81336;SDS011;70799;48.000;10.584;2023-12-20T13:31:25;0.60;;;0.30;;
81336;SDS011;70799;48.000;10.584;2023-12-20T13:34:02;0.70;;;0.30;;
81336;SDS011;70799;48.000;10.584;2023-12-20T13:36:39;1.98;;;0.40;;
81336;SDS011;70799;48.000;10.584;2023-12-20T13:39:18;1.65;;;0.30;;
81336;SDS011;70799;48.000;10.584;2023-12-20T13:41:54;1.42;;;0.40;;
81336;SDS011;70799;48.000;10.584;2023-12-20T13:44:33;0.90;;;0.40;;
81336;SDS011;70799;48.000;10.584;2023-12-20T13:47:10;0.82;;;0.30;;
81336;SDS011;70799;48.000;10.584;2023-12-20T13:49:46;0.85;;;0.32;;
81336;SDS011;70799;48.000;10.584;2023-12-20T13:52:24;1.08;;;0.50;;
81336;SDS011;70799;48.000;10.584;2023-12-20T13:55:02;1.25;;;0.70;;
81336;SDS011;70799;48.000;10.584;2023-12-20T13:57:40;1.45;;;0.50;;
81336;SDS011;70799;48.000;10.584;2023-12-20T14:00:26;1.40;;;0.63;;
81336;SDS011;70799;48.000;10.584;2023-12-20T14:05:39;2.25;;;0.90;;
81336;SDS011;70799;48.000;10.584;2023-12-20T14:08:15;1.30;;;0.70;;
81336;SDS011;70799;48.000;10.584;2023-12-20T14:10:52;1.98;;;0.75;;
81336;SDS011;70799;48.000;10.584;2023-12-20T14:13:28;2.13;;;0.80;;
81336;SDS011;70799;48.000;10.584;2023-12-20T14:18:42;1.75;;;0.70;;
81336;SDS011;70799;48.000;10.584;2023-12-20T14:23:56;2.83;;;0.80;;
81336;SDS011;70799;48.000;10.584;2023-12-20T14:26:34;1.92;;;0.95;;
81336;SDS011;70799;48.000;10.584;2023-12-20T14:31:46;1.95;;;0.75;;
81336;SDS011;70799;48.000;10.584;2023-12-20T14:34:23;2.60;;;0.98;;
81336;SDS011;70799;48.000;10.584;2023-12-20T14:36:59;2.25;;;0.77;;
81336;SDS011;70799;48.000;10.584;2023-12-20T14:39:38;1.52;;;0.65;;
81336;SDS011;70799;48.000;10.584;2023-12-20T14:44:50;1.88;;;0.68;;
81336;SDS011;70799;48.000;10.584;2023-12-20T14:47:27;1.77;;;0.70;;
81336;SDS011;70799;48.000;10.584;2023-12-20T14:50:03;3.13;;;0.90;;
81336;SDS011;70799;48.000;10.584;2023-12-20T14:52:40;1.95;;;0.85;;
81336;SDS011;70799;48.000;10.584;2023-12-20T14:55:17;2.50;;;0.90;;
81336;SDS011;70799;48.000;10.584;2023-12-20T14:57:54;3.13;;;0.88;;
81336;SDS011;70799;48.000;10.584;2023-12-20T15:03:06;1.60;;;0.60;;
81336;SDS011;70799;48.000;10.584;2023-12-20T15:05:42;1.58;;;0.80;;
81336;SDS011;70799;48.000;10.584;2023-12-20T15:08:20;2.78;;;0.80;;
81336;SDS011;70799;48.000;10.584;2023-12-20T15:10:56;1.92;;;0.73;;
81336;SDS011;70799;48.000;10.584;2023-12-20T15:13:35;3.13;;;0.80;;
81336;SDS011;70799;48.000;10.584;2023-12-20T15:18:48;1.92;;;0.80;;
81336;SDS011;70799;48.000;10.584;2023-12-20T15:21:26;2.60;;;1.20;;
81336;SDS011;70799;48.000;10.584;2023-12-20T15:24:15;3.15;;;0.93;;
81336;SDS011;70799;48.000;10.584;2023-12-20T15:26:59;1.92;;;0.70;;
81336;SDS011;70799;48.000;10.584;2023-12-20T15:29:35;2.45;;;0.70;;
81336;SDS011;70799;48.000;10.584;2023-12-20T15:34:48;1.40;;;0.55;;
81336;SDS011;70799;48.000;10.584;2023-12-20T15:37:22;3.28;;;0.63;;
81336;SDS011;70799;48.000;10.584;2023-12-20T15:39:58;2.67;;;0.70;;
81336;SDS011;70799;48.000;10.584;2023-12-20T15:42:38;2.63;;;0.90;;
81336;SDS011;70799;48.000;10.584;2023-12-20T15:45:14;2.97;;;0.80;;
81336;SDS011;70799;48.000;10.584;2023-12-20T15:47:52;3.25;;;0.80;;
81336;SDS011;70799;48.000;10.584;2023-12-20T15:50:34;2.28;;;0.90;;
81336;SDS011;70799;48.000;10.584;2023-12-20T15:53:13;1.77;;;0.63;;
81336;SDS011;70799;48.000;10.584;2023-12-20T15:55:49;2.75;;;1.02;;
81336;SDS011;70799;48.000;10.584;2023-12-20T15:58:25;2.30;;;0.68;;
81336;SDS011;70799;48.000;10.584;2023-12-20T16:01:01;1.83;;;0.77;;
81336;SDS011;70799;48.000;10.584;2023-12-20T16:03:39;1.63;;;0.73;;
81336;SDS011;70799;48.000;10.584;2023-12-20T16:06:25;1.52;;;0.60;;
81336;SDS011;70799;48.000;10.584;2023-12-20T16:09:02;2.45;;;0.70;;
81336;SDS011;70799;48.000;10.584;2023-12-20T16:11:38;1.42;;;0.50;;
81336;SDS011;70799;48.000;10.584;2023-12-20T16:14:14;2.22;;;0.73;;
81336;SDS011;70799;48.000;10.584;2023-12-20T16:16:58;2.08;;;0.60;;
81336;SDS011;70799;48.000;10.584;2023-12-20T16:19:34;2.55;;;0.60;;
81336;SDS011;70799;48.000;10.584;2023-12-20T16:22:11;2.75;;;0.88;;
81336;SDS011;70799;48.000;10.584;2023-12-20T16:24:47;2.10;;;0.43;;
81336;SDS011;70799;48.000;10.584;2023-12-20T16:29:59;1.20;;;0.40;;
81336;SDS011;70799;48.000;10.584;2023-12-20T16:32:41;1.70;;;0.73;;
81336;SDS011;70799;48.000;10.584;2023-12-20T16:35:17;1.40;;;0.55;;
81336;SDS011;70799;48.000;10.584;2023-12-20T16:37:53;3.92;;;0.68;;
81336;SDS011;70799;48.000;10.584;2023-12-20T16:40:30;1.80;;;0.60;;
81336;SDS011;70799;48.000;10.584;2023-12-20T16:43:06;1.25;;;0.40;;
81336;SDS011;70799;48.000;10.584;2023-12-20T16:45:45;2.17;;;0.55;;
81336;SDS011;70799;48.000;10.584;2023-12-20T16:48:24;1.40;;;0.60;;
81336;SDS011;70799;48.000;10.584;2023-12-20T16:51:03;1.45;;;0.40;;
81336;SDS011;70799;48.000;10.584;2023-12-20T16:53:54;1.67;;;0.50;;
81336;SDS011;70799;48.000;10.584;2023-12-20T16:56:34;1.40;;;0.40;;
81336;SDS011;70799;48.000;10.584;2023-12-20T16:59:10;0.73;;;0.43;;
81336;SDS011;70799;48.000;10.584;2023-12-20T17:01:46;2.20;;;0.45;;
81336;SDS011;70799;48.000;10.584;2023-12-20T17:04:23;3.85;;;0.47;;
81336;SDS011;70799;48.000;10.584;2023-12-20T17:09:38;1.33;;;0.40;;
81336;SDS011;70799;48.000;10.584;2023-12-20T17:12:17;0.95;;;0.50;;
81336;SDS011;70799;48.000;10.584;2023-12-20T17:14:53;2.25;;;0.25;;
81336;SDS011;70799;48.000;10.584;2023-12-20T17:17:29;0.52;;;0.20;;
81336;SDS011;70799;48.000;10.584;2023-12-20T17:22:42;1.80;;;0.30;;
81336;SDS011;70799;48.000;10.584;2023-12-20T17:25:19;6.22;;;0.70;;
81336;SDS011;70799;48.000;10.584;2023-12-20T17:27:58;2.20;;;0.30;;
81336;SDS011;70799;48.000;10.584;2023-12-20T17:30:35;4.97;;;1.33;;
81336;SDS011;70799;48.000;10.584;2023-12-20T17:33:13;2.00;;;0.50;;
81336;SDS011;70799;48.000;10.584;2023-12-20T17:35:50;2.83;;;0.43;;
81336;SDS011;70799;48.000;10.584;2023-12-20T17:38:27;1.98;;;0.30;;
81336;SDS011;70799;48.000;10.584;2023-12-20T17:41:11;2.72;;;0.40;;
81336;SDS011;70799;48.000;10.584;2023-12-20T17:43:50;1.92;;;0.30;;